sensor_id;sensor_type;location;lat;lon;timestamp;pressure;altitude;pressure_sealevel;temperature;humidity
35443;BME280;21561;55.654;37.592;2023-01-15T00:02:14;99983.47;;;-3.46;100.00
35443;BME280;21561;55.654;37.592;2023-01-15T00:04:43;99990.28;;;-3.45;100.00
35443;BME280;21561;55.654;37.592;2023-01-15T00:07:10;99998.69;;;-3.46;100.00
35443;BME280;21561;55.654;37.592;2023-01-15T00:09:37;100003.06;;;-3.43;100.00
35443;BME280;21561;55.654;37.592;2023-01-15T00:12:04;99997.28;;;-3.41;100.00
35443;BME280;21561;55.654;37.592;2023-01-15T00:14:31;99996.31;;;-3.43;100.00
35443;BME280;21561;55.654;37.592;2023-01-15T00:16:58;99991.19;;;-3.44;100.00
35443;BME280;21561;55.654;37.592;2023-01-15T00:19:24;99985.19;;;-3.45;100.00
35443;BME280;21561;55.654;37.592;2023-01-15T00:21:51;99979.34;;;-3.44;100.00
35443;BME280;21561;55.654;37.592;2023-01-15T00:24:19;99998.84;;;-3.43;100.00
35443;BME280;21561;55.654;37.592;2023-01-15T00:27:05;99989.50;;;-3.44;100.00
35443;BME280;21561;55.654;37.592;2023-01-15T00:29:50;99992.03;;;-3.44;100.00
35443;BME280;21561;55.654;37.592;2023-01-15T00:32:17;99983.47;;;-3.46;100.00
35443;BME280;21561;55.654;37.592;2023-01-15T00:34:44;99987.75;;;-3.45;100.00
35443;BME280;21561;55.654;37.592;2023-01-15T00:37:11;99980.03;;;-3.47;100.00
35443;BME280;21561;55.654;37.592;2023-01-15T00:39:38;99969.03;;;-3.47;100.00
35443;BME280;21561;55.654;37.592;2023-01-15T00:42:05;99964.91;;;-3.45;100.00
35443;BME280;21561;55.654;37.592;2023-01-15T00:44:31;99977.50;;;-3.47;100.00
35443;BME280;21561;55.654;37.592;2023-01-15T00:46:59;99983.47;;;-3.46;100.00
35443;BME280;21561;55.654;37.592;2023-01-15T00:49:26;99963.19;;;-3.46;100.00
35443;BME280;21561;55.654;37.592;2023-01-15T00:51:53;99962.22;;;-3.48;100.00
35443;BME280;21561;55.654;37.592;2023-01-15T00:54:20;99953.91;;;-3.46;100.00
35443;BME280;21561;55.654;37.592;2023-01-15T00:56:47;99956.34;;;-3.47;100.00
35443;BME280;21561;55.654;37.592;2023-01-15T00:59:14;99947.06;;;-3.47;100.00
35443;BME280;21561;55.654;37.592;2023-01-15T01:01:40;99942.06;;;-3.45;100.00
35443;BME280;21561;55.654;37.592;2023-01-15T01:04:07;99946.19;;;-3.47;100.00
35443;BME280;21561;55.654;37.592;2023-01-15T01:06:34;99945.41;;;-3.46;100.00
35443;BME280;21561;55.654;37.592;2023-01-15T01:09:01;99947.88;;;-3.48;100.00
35443;BME280;21561;55.654;37.592;2023-01-15T01:11:28;99947.97;;;-3.46;100.00
35443;BME280;21561;55.654;37.592;2023-01-15T01:14:00;99954.06;;;-3.42;100.00
35443;BME280;21561;55.654;37.592;2023-01-15T01:16:30;99954.94;;;-3.42;100.00
35443;BME280;21561;55.654;37.592;2023-01-15T01:19:00;99951.63;;;-3.41;100.00
35443;BME280;21561;55.654;37.592;2023-01-15T01:21:29;99958.25;;;-3.43;100.00
35443;BME280;21561;55.654;37.592;2023-01-15T01:23:58;99951.63;;;-3.41;100.00
35443;BME280;21561;55.654;37.592;2023-01-15T01:26:25;99954.06;;;-3.42;100.00
35443;BME280;21561;55.654;37.592;2023-01-15T01:28:53;99941.47;;;-3.41;100.00
35443;BME280;21561;55.654;37.592;2023-01-15T01:31:20;99948.09;;;-3.43;100.00
35443;BME280;21561;55.654;37.592;2023-01-15T01:33:49;99950.59;;;-3.44;100.00
35443;BME280;21561;55.654;37.592;2023-01-15T01:36:16;99940.44;;;-3.44;100.00
35443;BME280;21561;55.654;37.592;2023-01-15T01:38:46;99946.59;;;-3.39;100.00
35443;BME280;21561;55.654;37.592;2023-01-15T01:41:15;99934.16;;;-3.35;100.00
35443;BME280;21561;55.654;37.592;2023-01-15T01:43:57;99933.91;;;-3.39;100.00
35443;BME280;21561;55.654;37.592;2023-01-15T01:46:27;99931.31;;;-3.41;100.00
35443;BME280;21561;55.654;37.592;2023-01-15T01:49:08;99940.56;;;-3.41;100.00
35443;BME280;21561;55.654;37.592;2023-01-15T01:51:43;99938.94;;;-3.41;100.00
35443;BME280;21561;55.654;37.592;2023-01-15T01:54:13;99943.91;;;-3.42;100.00
35443;BME280;21561;55.654;37.592;2023-01-15T01:56:42;99931.22;;;-3.42;100.00
35443;BME280;21561;55.654;37.592;2023-01-15T01:59:09;99938.75;;;-3.44;100.00
35443;BME280;21561;55.654;37.592;2023-01-15T02:01:37;99937.94;;;-3.43;100.00
35443;BME280;21561;55.654;37.592;2023-01-15T02:04:07;99944.97;;;-3.39;100.00
35443;BME280;21561;55.654;37.592;2023-01-15T02:06:35;99937.94;;;-3.43;100.00
35443;BME280;21561;55.654;37.592;2023-01-15T02:09:03;99939.53;;;-3.45;100.00
35443;BME280;21561;55.654;37.592;2023-01-15T02:11:32;99937.09;;;-3.43;100.00
35443;BME280;21561;55.654;37.592;2023-01-15T02:14:14;99928.69;;;-3.42;100.00
35443;BME280;21561;55.654;37.592;2023-01-15T02:17:32;99938.28;;;-3.37;100.00
35443;BME280;21561;55.654;37.592;2023-01-15T02:28:39;99911.53;;;-3.47;100.00
35443;BME280;21561;55.654;37.592;2023-01-15T02:31:18;99931.06;;;-3.46;100.00
35443;BME280;21561;55.654;37.592;2023-01-15T02:33:53;99930.34;;;-3.43;100.00
35443;BME280;21561;55.654;37.592;2023-01-15T02:36:23;99937.09;;;-3.43;100.00
35443;BME280;21561;55.654;37.592;2023-01-15T02:38:54;99915.19;;;-3.41;100.00
35443;BME280;21561;55.654;37.592;2023-01-15T02:41:36;99938.66;;;-3.46;100.00
35443;BME280;21561;55.654;37.592;2023-01-15T02:44:05;99927.78;;;-3.43;100.00
35443;BME280;21561;55.654;37.592;2023-01-15T02:46:35;99931.16;;;-3.44;100.00
35443;BME280;21561;55.654;37.592;2023-01-15T02:49:05;99939.53;;;-3.45;100.00
35443;BME280;21561;55.654;37.592;2023-01-15T02:51:39;99929.38;;;-3.45;100.00
35443;BME280;21561;55.654;37.592;2023-01-15T02:54:11;99925.13;;;-3.46;100.00
35443;BME280;21561;55.654;37.592;2023-01-15T02:56:40;99924.31;;;-3.45;100.00
35443;BME280;21561;55.654;37.592;2023-01-15T02:59:12;99925.22;;;-3.44;100.00
35443;BME280;21561;55.654;37.592;2023-01-15T03:01:45;99926.84;;;-3.45;100.00
35443;BME280;21561;55.654;37.592;2023-01-15T03:04:24;99934.81;;;-3.39;100.00
35443;BME280;21561;55.654;37.592;2023-01-15T03:07:00;99933.22;;;-3.37;100.00
35443;BME280;21561;55.654;37.592;2023-01-15T03:09:30;99932.09;;;-3.42;100.00
35443;BME280;21561;55.654;37.592;2023-01-15T03:12:10;99933.13;;;-3.38;100.00
35443;BME280;21561;55.654;37.592;2023-01-15T03:17:30;99934.63;;;-3.42;100.00
35443;BME280;21561;55.654;37.592;2023-01-15T03:20:22;99936.53;;;-3.38;100.00
35443;BME280;21561;55.654;37.592;2023-01-15T03:22:53;99934.81;;;-3.39;100.00
35443;BME280;21561;55.654;37.592;2023-01-15T03:25:25;99934.72;;;-3.40;100.00
35443;BME280;21561;55.654;37.592;2023-01-15T03:27:56;99942.41;;;-3.39;100.00
35443;BME280;21561;55.654;37.592;2023-01-15T03:30:23;99949.13;;;-3.39;100.00
35443;BME280;21561;55.654;37.592;2023-01-15T03:32:52;99938.94;;;-3.41;100.00
35443;BME280;21561;55.654;37.592;2023-01-15T03:38:05;99948.19;;;-3.41;100.00
35443;BME280;21561;55.654;37.592;2023-01-15T03:40:35;99951.75;;;-3.38;100.00
35443;BME280;21561;55.654;37.592;2023-01-15T03:43:07;99934.81;;;-3.39;100.00
35443;BME280;21561;55.654;37.592;2023-01-15T03:45:56;99949.09;;;-3.41;100.00
35443;BME280;21561;55.654;37.592;2023-01-15T03:51:05;99951.06;;;-3.35;100.00
35443;BME280;21561;55.654;37.592;2023-01-15T03:53:43;99949.31;;;-3.36;100.00
35443;BME280;21561;55.654;37.592;2023-01-15T03:56:43;99950.34;;;-3.33;100.00
35443;BME280;21561;55.654;37.592;2023-01-15T03:59:26;99954.28;;;-3.38;100.00
35443;BME280;21561;55.654;37.592;2023-01-15T04:01:54;99955.97;;;-3.38;100.00
35443;BME280;21561;55.654;37.592;2023-01-15T04:04:24;99944.31;;;-3.35;100.00
35443;BME280;21561;55.654;37.592;2023-01-15T04:06:52;99941.59;;;-3.38;100.00
35443;BME280;21561;55.654;37.592;2023-01-15T04:09:20;99936.53;;;-3.38;100.00
35443;BME280;21561;55.654;37.592;2023-01-15T04:11:48;99943.38;;;-3.37;100.00
35443;BME280;21561;55.654;37.592;2023-01-15T04:14:15;99939.06;;;-3.38;100.00
35443;BME280;21561;55.654;37.592;2023-01-15T04:16:41;99939.97;;;-3.37;100.00
35443;BME280;21561;55.654;37.592;2023-01-15T04:19:08;99944.22;;;-3.36;100.00
35443;BME280;21561;55.654;37.592;2023-01-15T04:21:35;99929.25;;;-3.32;100.00
35443;BME280;21561;55.654;37.592;2023-01-15T04:24:02;99946.84;;;-3.35;100.00
35443;BME280;21561;55.654;37.592;2023-01-15T04:26:29;99944.22;;;-3.36;100.00
35443;BME280;21561;55.654;37.592;2023-01-15T04:28:55;99934.06;;;-3.36;100.00
35443;BME280;21561;55.654;37.592;2023-01-15T04:31:25;99950.16;;;-3.36;100.00
35443;BME280;21561;55.654;37.592;2023-01-15T04:33:53;99949.31;;;-3.36;100.00
35443;BME280;21561;55.654;37.592;2023-01-15T04:36:20;99950.16;;;-3.36;100.00
35443;BME280;21561;55.654;37.592;2023-01-15T04:38:47;99943.38;;;-3.37;100.00
35443;BME280;21561;55.654;37.592;2023-01-15T04:41:14;99947.41;;;-3.40;100.00
35443;BME280;21561;55.654;37.592;2023-01-15T04:43:59;99945.09;;;-3.36;100.00
35443;BME280;21561;55.654;37.592;2023-01-15T04:46:42;99944.56;;;-3.30;100.00
35443;BME280;21561;55.654;37.592;2023-01-15T04:49:12;99933.38;;;-3.34;100.00
35443;BME280;21561;55.654;37.592;2023-01-15T04:51:39;99926.56;;;-3.35;100.00
35443;BME280;21561;55.654;37.592;2023-01-15T04:54:08;99938.47;;;-3.34;100.00
35443;BME280;21561;55.654;37.592;2023-01-15T04:56:37;99936.69;;;-3.35;100.00
35443;BME280;21561;55.654;37.592;2023-01-15T04:59:05;99946.84;;;-3.35;100.00
35443;BME280;21561;55.654;37.592;2023-01-15T05:01:32;99942.56;;;-3.36;100.00
35443;BME280;21561;55.654;37.592;2023-01-15T05:03:59;99942.50;;;-3.37;100.00
35443;BME280;21561;55.654;37.592;2023-01-15T05:06:27;99946.94;;;-3.33;100.00
35443;BME280;21561;55.654;37.592;2023-01-15T05:08:54;99940.09;;;-3.34;100.00
35443;BME280;21561;55.654;37.592;2023-01-15T05:11:20;99938.28;;;-3.37;100.00
35443;BME280;21561;55.654;37.592;2023-01-15T05:13:47;99936.41;;;-3.41;100.00
35443;BME280;21561;55.654;37.592;2023-01-15T05:16:22;99931.31;;;-3.41;100.00
35443;BME280;21561;55.654;37.592;2023-01-15T05:18:52;99929.38;;;-3.45;100.00
35443;BME280;21561;55.654;37.592;2023-01-15T05:21:25;99927.78;;;-3.43;100.00
35443;BME280;21561;55.654;37.592;2023-01-15T05:23:54;99922.59;;;-3.46;100.00
35443;BME280;21561;55.654;37.592;2023-01-15T05:26:23;99930.03;;;-3.49;100.00
35443;BME280;21561;55.654;37.592;2023-01-15T05:28:53;99923.28;;;-3.49;100.00
35443;BME280;21561;55.654;37.592;2023-01-15T05:31:21;99942.72;;;-3.49;100.00
35443;BME280;21561;55.654;37.592;2023-01-15T05:33:48;99924.78;;;-3.52;100.00
35443;BME280;21561;55.654;37.592;2023-01-15T05:36:18;99930.81;;;-3.50;100.00
35443;BME280;21561;55.654;37.592;2023-01-15T05:38:45;99922.41;;;-3.49;100.00
35443;BME280;21561;55.654;37.592;2023-01-15T05:41:15;99918.13;;;-3.50;100.00
35443;BME280;21561;55.654;37.592;2023-01-15T05:44:03;99930.81;;;-3.50;100.00
35443;BME280;21561;55.654;37.592;2023-01-15T05:46:32;99928.44;;;-3.47;100.00
35443;BME280;21561;55.654;37.592;2023-01-15T05:49:00;99934.31;;;-3.48;100.00
35443;BME280;21561;55.654;37.592;2023-01-15T05:51:28;99930.09;;;-3.48;100.00
35443;BME280;21561;55.654;37.592;2023-01-15T05:53:58;99920.91;;;-3.46;100.00
35443;BME280;21561;55.654;37.592;2023-01-15T05:56:25;99923.38;;;-3.47;100.00
35443;BME280;21561;55.654;37.592;2023-01-15T05:58:52;99921.00;;;-3.44;100.00
35443;BME280;21561;55.654;37.592;2023-01-15T06:01:20;99929.56;;;-3.42;100.00
35443;BME280;21561;55.654;37.592;2023-01-15T06:03:47;99926.25;;;-3.41;100.00
35443;BME280;21561;55.654;37.592;2023-01-15T06:06:17;99912.66;;;-3.41;100.00
35443;BME280;21561;55.654;37.592;2023-01-15T06:08:44;99922.72;;;-3.43;100.00
35443;BME280;21561;55.654;37.592;2023-01-15T06:11:11;99924.47;;;-3.42;100.00
35443;BME280;21561;55.654;37.592;2023-01-15T06:13:38;99933.22;;;-3.37;100.00
35443;BME280;21561;55.654;37.592;2023-01-15T06:16:06;99918.16;;;-3.34;100.00
35443;BME280;21561;55.654;37.592;2023-01-15T06:18:33;99916.41;;;-3.35;100.00
35443;BME280;21561;55.654;37.592;2023-01-15T06:21:10;99917.44;;;-3.31;100.00
35443;BME280;21561;55.654;37.592;2023-01-15T06:23:38;99916.56;;;-3.32;100.00
35443;BME280;21561;55.654;37.592;2023-01-15T06:26:07;99915.75;;;-3.31;100.00
35443;BME280;21561;55.654;37.592;2023-01-15T06:28:36;99909.75;;;-3.33;100.00
35443;BME280;21561;55.654;37.592;2023-01-15T06:31:07;99909.75;;;-3.33;100.00
35443;BME280;21561;55.654;37.592;2023-01-15T06:33:35;99917.44;;;-3.31;100.00
35443;BME280;21561;55.654;37.592;2023-01-15T06:36:11;99926.94;;;-3.27;100.00
35443;BME280;21561;55.654;37.592;2023-01-15T06:38:39;99942.09;;;-3.29;100.00
35443;BME280;21561;55.654;37.592;2023-01-15T06:41:08;99934.66;;;-3.26;100.00
35443;BME280;21561;55.654;37.592;2023-01-15T06:43:55;99944.63;;;-3.29;100.00
35443;BME280;21561;55.654;37.592;2023-01-15T06:46:46;99954.00;;;-3.28;100.00
35443;BME280;21561;55.654;37.592;2023-01-15T06:49:34;99948.06;;;-3.28;100.00
35443;BME280;21561;55.654;37.592;2023-01-15T06:52:02;99945.59;;;-3.27;100.00
35443;BME280;21561;55.654;37.592;2023-01-15T06:54:30;99945.59;;;-3.27;100.00
35443;BME280;21561;55.654;37.592;2023-01-15T06:56:57;99948.19;;;-3.25;100.00
35443;BME280;21561;55.654;37.592;2023-01-15T06:59:24;99941.47;;;-3.24;100.00
35443;BME280;21561;55.654;37.592;2023-01-15T07:01:51;99938.69;;;-3.29;100.00
35443;BME280;21561;55.654;37.592;2023-01-15T07:04:17;99954.72;;;-3.30;100.00
35443;BME280;21561;55.654;37.592;2023-01-15T07:06:44;99946.38;;;-3.28;100.00
35443;BME280;21561;55.654;37.592;2023-01-15T07:09:12;99940.38;;;-3.30;100.00
35443;BME280;21561;55.654;37.592;2023-01-15T07:11:38;99941.31;;;-3.28;100.00
35443;BME280;21561;55.654;37.592;2023-01-15T07:16:43;99945.75;;;-3.23;100.00
35443;BME280;21561;55.654;37.592;2023-01-15T07:19:10;99949.09;;;-3.24;100.00
35443;BME280;21561;55.654;37.592;2023-01-15T07:21:37;99936.50;;;-3.23;100.00
35443;BME280;21561;55.654;37.592;2023-01-15T07:24:04;99937.34;;;-3.22;100.00
35443;BME280;21561;55.654;37.592;2023-01-15T07:26:32;99937.53;;;-3.19;100.00
35443;BME280;21561;55.654;37.592;2023-01-15T07:28:59;99935.59;;;-3.23;100.00
35443;BME280;21561;55.654;37.592;2023-01-15T07:31:25;99938.94;;;-3.24;100.00
35443;BME280;21561;55.654;37.592;2023-01-15T07:33:55;99938.38;;;-3.19;100.00
35443;BME280;21561;55.654;37.592;2023-01-15T07:36:22;99944.25;;;-3.20;100.00
35443;BME280;21561;55.654;37.592;2023-01-15T07:38:49;99945.13;;;-3.19;100.00
35443;BME280;21561;55.654;37.592;2023-01-15T07:41:16;99942.75;;;-3.16;100.00
35443;BME280;21561;55.654;37.592;2023-01-15T07:44:02;99941.97;;;-3.15;100.00
35443;BME280;21561;55.654;37.592;2023-01-15T07:46:48;99943.56;;;-3.17;100.00
35443;BME280;21561;55.654;37.592;2023-01-15T07:49:33;99937.84;;;-3.13;100.00
35443;BME280;21561;55.654;37.592;2023-01-15T07:52:18;99936.25;;;-3.11;100.00
35443;BME280;21561;55.654;37.592;2023-01-15T07:54:46;99936.06;;;-3.14;100.00
35443;BME280;21561;55.654;37.592;2023-01-15T07:57:17;99933.63;;;-3.13;100.00
35443;BME280;21561;55.654;37.592;2023-01-15T07:59:44;99932.75;;;-3.13;100.00
35443;BME280;21561;55.654;37.592;2023-01-15T08:02:11;99930.31;;;-3.12;100.00
35443;BME280;21561;55.654;37.592;2023-01-15T08:04:38;99942.91;;;-3.13;100.00
35443;BME280;21561;55.654;37.592;2023-01-15T08:07:06;99928.41;;;-3.16;100.00
35443;BME280;21561;55.654;37.592;2023-01-15T08:09:34;99936.06;;;-3.14;100.00
35443;BME280;21561;55.654;37.592;2023-01-15T08:12:02;99924.34;;;-3.12;100.00
35443;BME280;21561;55.654;37.592;2023-01-15T08:14:47;99910.00;;;-3.12;100.00
35443;BME280;21561;55.654;37.592;2023-01-15T08:17:34;99921.97;;;-3.09;100.00
35443;BME280;21561;55.654;37.592;2023-01-15T08:20:02;99922.22;;;-3.04;100.00
35443;BME280;21561;55.654;37.592;2023-01-15T08:22:30;99922.22;;;-3.04;100.00
35443;BME280;21561;55.654;37.592;2023-01-15T08:24:57;99920.69;;;-3.01;100.00
35443;BME280;21561;55.654;37.592;2023-01-15T08:27:25;99920.06;;;-2.97;100.00
35443;BME280;21561;55.654;37.592;2023-01-15T08:29:52;99924.25;;;-2.97;100.00
35443;BME280;21561;55.654;37.592;2023-01-15T08:32:18;99915.78;;;-2.98;100.00
35443;BME280;21561;55.654;37.592;2023-01-15T08:34:45;99926.56;;;-3.02;100.00
35443;BME280;21561;55.654;37.592;2023-01-15T08:37:12;99921.47;;;-3.02;100.00
35443;BME280;21561;55.654;37.592;2023-01-15T08:39:39;99923.41;;;-2.98;100.00
35443;BME280;21561;55.654;37.592;2023-01-15T08:42:06;99923.41;;;-2.98;100.00
35443;BME280;21561;55.654;37.592;2023-01-15T08:44:33;99926.00;;;-2.96;100.00
35443;BME280;21561;55.654;37.592;2023-01-15T08:47:00;99922.75;;;-2.94;100.00
35443;BME280;21561;55.654;37.592;2023-01-15T08:49:27;99927.03;;;-2.93;100.00
35443;BME280;21561;55.654;37.592;2023-01-15T08:51:54;99925.59;;;-2.88;100.00
35443;BME280;21561;55.654;37.592;2023-01-15T08:54:21;99923.13;;;-2.86;100.00
35443;BME280;21561;55.654;37.592;2023-01-15T08:56:50;99913.72;;;-2.89;100.00
35443;BME280;21561;55.654;37.592;2023-01-15T08:59:17;99914.66;;;-2.86;100.00
35443;BME280;21561;55.654;37.592;2023-01-15T09:01:44;99915.44;;;-2.88;100.00
35443;BME280;21561;55.654;37.592;2023-01-15T09:04:13;99928.13;;;-2.88;100.00
35443;BME280;21561;55.654;37.592;2023-01-15T09:06:41;99922.94;;;-2.91;100.00
35443;BME280;21561;55.654;37.592;2023-01-15T09:09:08;99916.94;;;-2.91;100.00
35443;BME280;21561;55.654;37.592;2023-01-15T09:11:35;99915.44;;;-2.88;100.00
35443;BME280;21561;55.654;37.592;2023-01-15T09:14:10;99915.44;;;-2.88;100.00
35443;BME280;21561;55.654;37.592;2023-01-15T09:16:57;99912.69;;;-2.92;100.00
35443;BME280;21561;55.654;37.592;2023-01-15T09:19:24;99901.50;;;-2.96;100.00
35443;BME280;21561;55.654;37.592;2023-01-15T09:21:51;99908.94;;;-2.99;100.00
35443;BME280;21561;55.654;37.592;2023-01-15T09:24:18;99909.97;;;-2.95;100.00
35443;BME280;21561;55.654;37.592;2023-01-15T09:26:45;99905.16;;;-2.91;100.00
35443;BME280;21561;55.654;37.592;2023-01-15T09:29:13;99906.88;;;-2.90;100.00
35443;BME280;21561;55.654;37.592;2023-01-15T09:31:39;99915.44;;;-2.88;100.00
35443;BME280;21561;55.654;37.592;2023-01-15T09:34:06;99912.13;;;-2.86;100.00
35443;BME280;21561;55.654;37.592;2023-01-15T09:36:34;99913.84;;;-2.85;100.00
35443;BME280;21561;55.654;37.592;2023-01-15T09:39:03;99910.53;;;-2.84;100.00
35443;BME280;21561;55.654;37.592;2023-01-15T09:41:55;99921.78;;;-2.79;100.00
35443;BME280;21561;55.654;37.592;2023-01-15T09:44:33;99902.13;;;-2.83;99.74
35443;BME280;21561;55.654;37.592;2023-01-15T09:47:12;99892.09;;;-2.80;100.00
35443;BME280;21561;55.654;37.592;2023-01-15T09:52:38;99887.47;;;-2.71;99.56
35443;BME280;21561;55.654;37.592;2023-01-15T09:55:13;99894.16;;;-2.73;99.85
35443;BME280;21561;55.654;37.592;2023-01-15T09:57:42;99890.81;;;-2.72;99.87
35443;BME280;21561;55.654;37.592;2023-01-15T10:00:21;99893.72;;;-2.64;99.27
35443;BME280;21561;55.654;37.592;2023-01-15T10:03:01;99883.38;;;-2.69;99.44
35443;BME280;21561;55.654;37.592;2023-01-15T10:05:34;99887.63;;;-2.68;99.39
35443;BME280;21561;55.654;37.592;2023-01-15T10:08:20;99893.16;;;-2.59;99.42
35443;BME280;21561;55.654;37.592;2023-01-15T10:10:54;99896.59;;;-2.58;98.77
35443;BME280;21561;55.654;37.592;2023-01-15T10:13:40;99884.91;;;-2.55;99.12
35443;BME280;21561;55.654;37.592;2023-01-15T10:16:10;99893.06;;;-2.60;98.56
35443;BME280;21561;55.654;37.592;2023-01-15T10:18:38;99900.00;;;-2.58;98.12
35443;BME280;21561;55.654;37.592;2023-01-15T10:26:31;99903.66;;;-2.53;97.96
35443;BME280;21561;55.654;37.592;2023-01-15T10:32:09;99893.59;;;-2.50;97.85
35443;BME280;21561;55.654;37.592;2023-01-15T10:37:46;99882.16;;;-2.41;98.02
35443;BME280;21561;55.654;37.592;2023-01-15T10:40:57;99878.88;;;-2.39;97.80
35443;BME280;21561;55.654;37.592;2023-01-15T10:43:48;99885.63;;;-2.39;97.74
35443;BME280;21561;55.654;37.592;2023-01-15T10:46:18;99888.69;;;-2.46;97.36
35443;BME280;21561;55.654;37.592;2023-01-15T10:48:50;99880.41;;;-2.42;97.45
35443;BME280;21561;55.654;37.592;2023-01-15T10:58:57;99860.81;;;-2.45;96.54
35443;BME280;21561;55.654;37.592;2023-01-15T11:01:31;99865.03;;;-2.45;96.55
35443;BME280;21561;55.654;37.592;2023-01-15T11:03:57;99858.50;;;-2.40;96.57
35443;BME280;21561;55.654;37.592;2023-01-15T11:06:25;99846.72;;;-2.38;96.49
35443;BME280;21561;55.654;37.592;2023-01-15T11:08:56;99855.38;;;-2.35;96.62
35443;BME280;21561;55.654;37.592;2023-01-15T11:11:45;99847.84;;;-2.33;96.29
35443;BME280;21561;55.654;37.592;2023-01-15T11:17:17;99859.06;;;-2.28;96.29
35443;BME280;21561;55.654;37.592;2023-01-15T11:20:52;99843.97;;;-2.25;95.74
35443;BME280;21561;55.654;37.592;2023-01-15T11:23:08;99835.41;;;-2.27;95.20
35443;BME280;21561;55.654;37.592;2023-01-15T11:25:35;99842.75;;;-2.33;95.40
35443;BME280;21561;55.654;37.592;2023-01-15T11:28:06;99826.53;;;-2.35;95.30
35443;BME280;21561;55.654;37.592;2023-01-15T11:30:36;99831.47;;;-2.38;95.19
35443;BME280;21561;55.654;37.592;2023-01-15T11:33:05;99817.38;;;-2.32;95.34
35443;BME280;21561;55.654;37.592;2023-01-15T11:35:54;99838.00;;;-2.25;95.53
35443;BME280;21561;55.654;37.592;2023-01-15T11:38:28;99837.16;;;-2.26;95.23
35443;BME280;21561;55.654;37.592;2023-01-15T11:40:59;99836.13;;;-2.29;94.91
35443;BME280;21561;55.654;37.592;2023-01-15T11:43:28;99828.56;;;-2.28;94.88
35443;BME280;21561;55.654;37.592;2023-01-15T11:46:30;99814.84;;;-2.32;95.06
35443;BME280;21561;55.654;37.592;2023-01-15T11:49:26;99820.81;;;-2.31;95.18
35443;BME280;21561;55.654;37.592;2023-01-15T11:52:16;99810.75;;;-2.28;95.13
35443;BME280;21561;55.654;37.592;2023-01-15T11:54:45;99813.31;;;-2.28;95.05
35443;BME280;21561;55.654;37.592;2023-01-15T11:57:25;99800.66;;;-2.26;95.26
35443;BME280;21561;55.654;37.592;2023-01-15T11:59:53;99820.56;;;-2.36;95.10
35443;BME280;21561;55.654;37.592;2023-01-15T12:02:36;99802.88;;;-2.34;95.24
35443;BME280;21561;55.654;37.592;2023-01-15T12:05:17;99795.09;;;-2.37;95.37
35443;BME280;21561;55.654;37.592;2023-01-15T12:07:45;99807.78;;;-2.37;95.32
35443;BME280;21561;55.654;37.592;2023-01-15T12:10:18;99801.09;;;-2.35;95.14
35443;BME280;21561;55.654;37.592;2023-01-15T12:13:45;99805.56;;;-2.31;95.89
35443;BME280;21561;55.654;37.592;2023-01-15T12:19:00;99807.22;;;-2.32;95.01
35443;BME280;21561;55.654;37.592;2023-01-15T12:32:45;99804.31;;;-2.39;95.51
35443;BME280;21561;55.654;37.592;2023-01-15T12:38:07;99808.63;;;-2.38;95.18
35443;BME280;21561;55.654;37.592;2023-01-15T12:40:55;99805.91;;;-2.41;94.91
35443;BME280;21561;55.654;37.592;2023-01-15T12:43:27;99816.75;;;-2.45;94.78
35443;BME280;21561;55.654;37.592;2023-01-15T12:46:18;99813.38;;;-2.44;94.68
35443;BME280;21561;55.654;37.592;2023-01-15T12:48:56;99811.78;;;-2.42;94.73
35443;BME280;21561;55.654;37.592;2023-01-15T12:51:44;99826.09;;;-2.44;94.38
35443;BME280;21561;55.654;37.592;2023-01-15T12:54:14;99822.34;;;-2.53;94.20
35443;BME280;21561;55.654;37.592;2023-01-15T12:56:54;99827.53;;;-2.50;94.11
35443;BME280;21561;55.654;37.592;2023-01-15T13:05:16;99837.78;;;-2.48;94.23
35443;BME280;21561;55.654;37.592;2023-01-15T13:07:58;99842.78;;;-2.50;94.44
35443;BME280;21561;55.654;37.592;2023-01-15T13:10:28;99841.06;;;-2.51;93.95
35443;BME280;21561;55.654;37.592;2023-01-15T13:13:23;99837.69;;;-2.50;94.10
35443;BME280;21561;55.654;37.592;2023-01-15T13:21:14;99837.69;;;-2.50;93.71
35443;BME280;21561;55.654;37.592;2023-01-15T13:27:13;99852.94;;;-2.50;93.58
35443;BME280;21561;55.654;37.592;2023-01-15T13:32:46;99847.59;;;-2.56;94.00
35443;BME280;21561;55.654;37.592;2023-01-15T13:35:32;99847.75;;;-2.53;93.75
35443;BME280;21561;55.654;37.592;2023-01-15T13:38:05;99846.16;;;-2.51;93.95
35443;BME280;21561;55.654;37.592;2023-01-15T13:40:42;99849.38;;;-2.53;93.58
35443;BME280;21561;55.654;37.592;2023-01-15T13:43:35;99844.38;;;-2.52;93.17
35443;BME280;21561;55.654;37.592;2023-01-15T13:46:07;99840.75;;;-2.57;93.52
35443;BME280;21561;55.654;37.592;2023-01-15T13:48:46;99842.66;;;-2.53;94.37
35443;BME280;21561;55.654;37.592;2023-01-15T13:51:34;99840.25;;;-2.50;93.74
35443;BME280;21561;55.654;37.592;2023-01-15T13:54:12;99848.69;;;-2.51;93.67
35443;BME280;21561;55.654;37.592;2023-01-15T13:56:41;99849.19;;;-2.58;93.22
35443;BME280;21561;55.654;37.592;2023-01-15T14:01:55;99852.38;;;-2.62;93.56
35443;BME280;21561;55.654;37.592;2023-01-15T14:04:34;99857.59;;;-2.59;93.38
35443;BME280;21561;55.654;37.592;2023-01-15T14:07:02;99851.28;;;-2.67;93.68
35443;BME280;21561;55.654;37.592;2023-01-15T14:09:29;99847.16;;;-2.65;93.65
35443;BME280;21561;55.654;37.592;2023-01-15T14:14:52;99858.16;;;-2.64;93.60
35443;BME280;21561;55.654;37.592;2023-01-15T14:23:12;99863.03;;;-2.69;93.68
35443;BME280;21561;55.654;37.592;2023-01-15T14:29:23;99859.47;;;-2.73;93.26
35443;BME280;21561;55.654;37.592;2023-01-15T14:32:02;99852.41;;;-2.78;93.56
35443;BME280;21561;55.654;37.592;2023-01-15T14:34:34;99849.81;;;-2.80;93.65
35443;BME280;21561;55.654;37.592;2023-01-15T14:39:46;99859.25;;;-2.77;93.64
35443;BME280;21561;55.654;37.592;2023-01-15T14:47:47;99864.31;;;-2.77;94.23
35443;BME280;21561;55.654;37.592;2023-01-15T14:50:42;99846.53;;;-2.77;94.30
35443;BME280;21561;55.654;37.592;2023-01-15T14:56:18;99836.22;;;-2.80;94.50